sensor_id;sensor_type;location;lat;lon;timestamp;pressure;altitude;pressure_sealevel;temperature;humidity
83697;BME280;73677;54.530;18.484;2023-10-31T00:02:16;99688.66;;;8.17;96.36
83697;BME280;73677;54.530;18.484;2023-10-31T00:04:45;99632.88;;;7.95;96.16
83697;BME280;73677;54.530;18.484;2023-10-31T00:07:15;99640.94;;;8.01;96.39
83697;BME280;73677;54.530;18.484;2023-10-31T00:09:45;99676.53;;;8.25;95.70
83697;BME280;73677;54.530;18.484;2023-10-31T00:12:15;99669.06;;;8.32;95.41
83697;BME280;73677;54.530;18.484;2023-10-31T00:14:45;99671.28;;;8.35;95.11
83697;BME280;73677;54.530;18.484;2023-10-31T00:17:14;99666.31;;;8.32;94.66
83697;BME280;73677;54.530;18.484;2023-10-31T00:19:44;99656.19;;;8.21;95.16
83697;BME280;73677;54.530;18.484;2023-10-31T00:22:14;99667.50;;;8.36;95.36
83697;BME280;73677;54.530;18.484;2023-10-31T00:24:47;99664.00;;;8.52;95.89
83697;BME280;73677;54.530;18.484;2023-10-31T00:27:16;99649.59;;;8.45;95.80
83697;BME280;73677;54.530;18.484;2023-10-31T00:29:45;99661.59;;;8.56;95.57
83697;BME280;73677;54.530;18.484;2023-10-31T00:32:16;99641.50;;;8.50;95.74
83697;BME280;73677;54.530;18.484;2023-10-31T00:34:45;99654.09;;;8.63;95.51
83697;BME280;73677;54.530;18.484;2023-10-31T00:37:15;99666.97;;;8.62;95.41
83697;BME280;73677;54.530;18.484;2023-10-31T00:39:47;99647.50;;;8.64;95.23
83697;BME280;73677;54.530;18.484;2023-10-31T00:42:16;99630.53;;;8.50;95.64
83697;BME280;73677;54.530;18.484;2023-10-31T00:44:51;99648.22;;;8.71;96.10
83697;BME280;73677;54.530;18.484;2023-10-31T00:47:20;99644.41;;;8.72;95.33
83697;BME280;73677;54.530;18.484;2023-10-31T00:49:49;99637.34;;;8.76;95.44
83697;BME280;73677;54.530;18.484;2023-10-31T00:52:22;99615.84;;;8.68;95.33
83697;BME280;73677;54.530;18.484;2023-10-31T00:54:51;99607.25;;;8.64;94.82
83697;BME280;73677;54.530;18.484;2023-10-31T00:57:20;99616.28;;;8.76;95.48
83697;BME280;73677;54.530;18.484;2023-10-31T00:59:49;99612.22;;;8.79;95.60
83697;BME280;73677;54.530;18.484;2023-10-31T01:02:18;99599.09;;;8.81;95.32
83697;BME280;73677;54.530;18.484;2023-10-31T01:04:48;99603.47;;;8.93;95.56
83697;BME280;73677;54.530;18.484;2023-10-31T01:07:21;99607.38;;;8.98;95.47
83697;BME280;73677;54.530;18.484;2023-10-31T01:09:51;99601.13;;;9.02;95.42
83697;BME280;73677;54.530;18.484;2023-10-31T01:12:20;99604.94;;;9.01;95.55
83697;BME280;73677;54.530;18.484;2023-10-31T01:14:50;99555.25;;;8.81;94.81
83697;BME280;73677;54.530;18.484;2023-10-31T01:17:19;99580.88;;;9.03;94.83
83697;BME280;73677;54.530;18.484;2023-10-31T01:19:51;99575.06;;;9.00;95.33
83697;BME280;73677;54.530;18.484;2023-10-31T01:22:22;99574.13;;;8.94;94.92
83697;BME280;73677;54.530;18.484;2023-10-31T01:24:52;99567.00;;;8.93;95.33
83697;BME280;73677;54.530;18.484;2023-10-31T01:27:21;99551.28;;;8.88;95.27
83697;BME280;73677;54.530;18.484;2023-10-31T01:29:51;99540.91;;;8.90;95.58
83697;BME280;73677;54.530;18.484;2023-10-31T01:32:20;99542.25;;;9.05;96.06
83697;BME280;73677;54.530;18.484;2023-10-31T01:34:50;99538.25;;;9.12;95.17
83697;BME280;73677;54.530;18.484;2023-10-31T01:37:19;99527.81;;;9.09;95.75
83697;BME280;73677;54.530;18.484;2023-10-31T01:39:50;99536.88;;;9.10;95.50
83697;BME280;73677;54.530;18.484;2023-10-31T01:42:19;99531.69;;;9.13;96.13
83697;BME280;73677;54.530;18.484;2023-10-31T01:44:49;99531.69;;;9.13;95.97
83697;BME280;73677;54.530;18.484;2023-10-31T01:47:18;99506.69;;;9.10;96.12
83697;BME280;73677;54.530;18.484;2023-10-31T01:49:47;99503.78;;;9.16;95.89
83697;BME280;73677;54.530;18.484;2023-10-31T01:52:16;99501.09;;;9.21;95.85
83697;BME280;73677;54.530;18.484;2023-10-31T01:54:45;99508.53;;;9.21;94.57
83697;BME280;73677;54.530;18.484;2023-10-31T01:57:18;99516.47;;;9.22;95.41
83697;BME280;73677;54.530;18.484;2023-10-31T01:59:48;99501.63;;;9.18;95.46
83697;BME280;73677;54.530;18.484;2023-10-31T02:02:17;99491.81;;;9.22;96.29
83697;BME280;73677;54.530;18.484;2023-10-31T02:04:47;99455.59;;;9.20;96.42
83697;BME280;73677;54.530;18.484;2023-10-31T02:07:17;99463.25;;;9.18;95.58
83697;BME280;73677;54.530;18.484;2023-10-31T02:09:48;99470.94;;;9.21;95.10
83697;BME280;73677;54.530;18.484;2023-10-31T02:12:34;99425.22;;;9.05;95.51
83697;BME280;73677;54.530;18.484;2023-10-31T02:15:06;99455.69;;;9.25;95.24
83697;BME280;73677;54.530;18.484;2023-10-31T02:17:35;99425.16;;;9.00;95.59
83697;BME280;73677;54.530;18.484;2023-10-31T02:20:06;99437.66;;;9.13;95.58
83697;BME280;73677;54.530;18.484;2023-10-31T02:22:37;99446.47;;;9.15;95.29
83697;BME280;73677;54.530;18.484;2023-10-31T02:25:16;99391.06;;;8.96;95.64
83697;BME280;73677;54.530;18.484;2023-10-31T02:27:46;99401.78;;;8.98;95.67
83697;BME280;73677;54.530;18.484;2023-10-31T02:30:16;99408.94;;;8.99;95.68
83697;BME280;73677;54.530;18.484;2023-10-31T02:32:45;99418.00;;;8.99;95.79
83697;BME280;73677;54.530;18.484;2023-10-31T02:35:15;99409.84;;;8.87;95.66
83697;BME280;73677;54.530;18.484;2023-10-31T02:37:47;99413.28;;;8.95;96.64
83697;BME280;73677;54.530;18.484;2023-10-31T02:40:19;99403.53;;;9.04;97.03
83697;BME280;73677;54.530;18.484;2023-10-31T02:42:47;99401.63;;;9.04;96.19
83697;BME280;73677;54.530;18.484;2023-10-31T02:45:16;99388.69;;;9.00;96.75
83697;BME280;73677;54.530;18.484;2023-10-31T02:47:45;99403.59;;;9.09;96.99
83697;BME280;73677;54.530;18.484;2023-10-31T02:50:15;99392.19;;;9.17;96.34
83697;BME280;73677;54.530;18.484;2023-10-31T02:52:44;99391.78;;;9.25;96.12
83697;BME280;73677;54.530;18.484;2023-10-31T02:55:18;99325.56;;;8.95;96.21
83697;BME280;73677;54.530;18.484;2023-10-31T02:57:47;99348.06;;;9.18;95.99
83697;BME280;73677;54.530;18.484;2023-10-31T03:00:18;99355.66;;;9.33;95.77
83697;BME280;73677;54.530;18.484;2023-10-31T03:02:46;99351.31;;;9.37;95.84
83697;BME280;73677;54.530;18.484;2023-10-31T03:05:19;99342.53;;;9.35;95.76
83697;BME280;73677;54.530;18.484;2023-10-31T03:07:47;99336.03;;;9.41;95.15
83697;BME280;73677;54.530;18.484;2023-10-31T03:10:19;99324.25;;;9.41;95.56
83697;BME280;73677;54.530;18.484;2023-10-31T03:12:50;99319.00;;;9.39;95.18
83697;BME280;73677;54.530;18.484;2023-10-31T03:15:21;99312.56;;;9.50;95.20
83697;BME280;73677;54.530;18.484;2023-10-31T03:17:51;99300.44;;;9.46;94.89
83697;BME280;73677;54.530;18.484;2023-10-31T03:20:22;99304.06;;;9.52;95.09
83697;BME280;73677;54.530;18.484;2023-10-31T03:22:54;99281.50;;;9.45;94.60
83697;BME280;73677;54.530;18.484;2023-10-31T03:25:24;99286.00;;;9.56;94.72
83697;BME280;73677;54.530;18.484;2023-10-31T03:27:53;99283.06;;;9.62;94.54
83697;BME280;73677;54.530;18.484;2023-10-31T03:30:22;99274.06;;;9.67;94.77
83697;BME280;73677;54.530;18.484;2023-10-31T03:32:51;99273.03;;;9.73;94.38
83697;BME280;73677;54.530;18.484;2023-10-31T03:35:20;99269.75;;;9.76;94.47
83697;BME280;73677;54.530;18.484;2023-10-31T03:37:49;99262.16;;;9.83;94.72
83697;BME280;73677;54.530;18.484;2023-10-31T03:40:18;99257.78;;;9.87;94.41
83697;BME280;73677;54.530;18.484;2023-10-31T03:42:53;99244.56;;;9.84;94.46
83697;BME280;73677;54.530;18.484;2023-10-31T03:45:23;99244.59;;;9.89;94.38
83697;BME280;73677;54.530;18.484;2023-10-31T03:47:51;99239.13;;;9.89;94.63
83697;BME280;73677;54.530;18.484;2023-10-31T03:50:21;99219.59;;;9.86;94.74
83697;BME280;73677;54.530;18.484;2023-10-31T03:52:50;99213.34;;;9.90;95.17
83697;BME280;73677;54.530;18.484;2023-10-31T03:55:20;99210.63;;;9.95;94.98
83697;BME280;73677;54.530;18.484;2023-10-31T03:57:49;99203.25;;;10.01;94.80
83697;BME280;73677;54.530;18.484;2023-10-31T04:00:20;99203.84;;;10.03;94.73
83697;BME280;73677;54.530;18.484;2023-10-31T04:02:48;99199.22;;;10.08;94.88
83697;BME280;73677;54.530;18.484;2023-10-31T04:05:18;99192.00;;;9.97;94.77
83697;BME280;73677;54.530;18.484;2023-10-31T04:07:47;99185.13;;;10.00;94.87
83697;BME280;73677;54.530;18.484;2023-10-31T04:10:18;99170.84;;;9.98;94.87
83697;BME280;73677;54.530;18.484;2023-10-31T04:12:48;99174.75;;;10.07;95.37
83697;BME280;73677;54.530;18.484;2023-10-31T04:15:17;99168.97;;;10.03;95.46
83697;BME280;73677;54.530;18.484;2023-10-31T04:17:47;99164.59;;;10.07;94.97
83697;BME280;73677;54.530;18.484;2023-10-31T04:20:17;99165.78;;;10.16;95.70
83697;BME280;73677;54.530;18.484;2023-10-31T04:22:46;99155.91;;;10.20;95.24
83697;BME280;73677;54.530;18.484;2023-10-31T04:25:15;99150.75;;;10.24;95.16
83697;BME280;73677;54.530;18.484;2023-10-31T04:27:45;99142.50;;;10.24;95.14
83697;BME280;73677;54.530;18.484;2023-10-31T04:30:14;99129.03;;;10.23;94.86
83697;BME280;73677;54.530;18.484;2023-10-31T04:32:43;99128.53;;;10.31;95.22
83697;BME280;73677;54.530;18.484;2023-10-31T04:35:15;99089.41;;;10.13;94.75
83697;BME280;73677;54.530;18.484;2023-10-31T04:37:44;99108.19;;;10.32;95.25
83697;BME280;73677;54.530;18.484;2023-10-31T04:40:13;99105.47;;;10.37;94.48
83697;BME280;73677;54.530;18.484;2023-10-31T04:42:46;99096.38;;;10.31;94.17
83697;BME280;73677;54.530;18.484;2023-10-31T04:45:16;99073.34;;;10.37;94.47
83697;BME280;73677;54.530;18.484;2023-10-31T04:47:46;99076.94;;;10.43;94.80
83697;BME280;73677;54.530;18.484;2023-10-31T04:50:17;99079.16;;;10.41;94.57
83697;BME280;73677;54.530;18.484;2023-10-31T04:52:46;99073.38;;;10.42;94.80
83697;BME280;73677;54.530;18.484;2023-10-31T04:55:16;99073.09;;;10.44;94.63
83697;BME280;73677;54.530;18.484;2023-10-31T04:57:45;99061.88;;;10.50;94.52
83697;BME280;73677;54.530;18.484;2023-10-31T05:00:15;99064.34;;;10.52;93.75
83697;BME280;73677;54.530;18.484;2023-10-31T05:02:44;99065.97;;;10.48;94.34
83697;BME280;73677;54.530;18.484;2023-10-31T05:05:13;99053.66;;;10.55;94.52
83697;BME280;73677;54.530;18.484;2023-10-31T05:07:45;99056.69;;;10.64;93.89
83697;BME280;73677;54.530;18.484;2023-10-31T05:10:14;99045.69;;;10.69;93.67
83697;BME280;73677;54.530;18.484;2023-10-31T05:12:46;99052.03;;;10.75;93.39
83697;BME280;73677;54.530;18.484;2023-10-31T05:15:16;99039.69;;;10.82;93.21
83697;BME280;73677;54.530;18.484;2023-10-31T05:17:45;99027.88;;;10.82;92.92
83697;BME280;73677;54.530;18.484;2023-10-31T05:20:15;98960.47;;;10.44;93.00
83697;BME280;73677;54.530;18.484;2023-10-31T05:22:46;99007.53;;;10.78;93.36
83697;BME280;73677;54.530;18.484;2023-10-31T05:25:17;99005.59;;;10.78;93.18
83697;BME280;73677;54.530;18.484;2023-10-31T05:27:46;98964.06;;;10.65;92.76
83697;BME280;73677;54.530;18.484;2023-10-31T05:30:16;98955.56;;;10.61;92.22
83697;BME280;73677;54.530;18.484;2023-10-31T05:32:46;98976.75;;;10.86;92.56
83697;BME280;73677;54.530;18.484;2023-10-31T05:35:15;98981.16;;;10.87;92.68
83697;BME280;73677;54.530;18.484;2023-10-31T05:37:46;98977.31;;;10.88;92.37
83697;BME280;73677;54.530;18.484;2023-10-31T05:40:18;98972.34;;;10.90;92.41
83697;BME280;73677;54.530;18.484;2023-10-31T05:42:49;98974.00;;;10.96;91.71
83697;BME280;73677;54.530;18.484;2023-10-31T05:45:19;98940.75;;;10.82;91.96
83697;BME280;73677;54.530;18.484;2023-10-31T05:47:48;98946.50;;;10.91;92.06
83697;BME280;73677;54.530;18.484;2023-10-31T05:50:17;98942.41;;;10.93;91.95
83697;BME280;73677;54.530;18.484;2023-10-31T05:52:51;98936.06;;;10.98;91.75
83697;BME280;73677;54.530;18.484;2023-10-31T05:55:20;98937.72;;;10.99;91.66
83697;BME280;73677;54.530;18.484;2023-10-31T05:57:49;98930.00;;;11.01;91.67
83697;BME280;73677;54.530;18.484;2023-10-31T06:00:19;98926.97;;;11.08;91.26
83697;BME280;73677;54.530;18.484;2023-10-31T06:02:48;98929.16;;;11.11;91.80
83697;BME280;73677;54.530;18.484;2023-10-31T06:05:17;98921.47;;;11.13;90.87
83697;BME280;73677;54.530;18.484;2023-10-31T06:07:46;98914.59;;;11.10;91.37
83697;BME280;73677;54.530;18.484;2023-10-31T06:10:18;98915.97;;;11.08;91.16
83697;BME280;73677;54.530;18.484;2023-10-31T06:12:48;98905.25;;;11.06;91.30
83697;BME280;73677;54.530;18.484;2023-10-31T06:15:19;98890.16;;;10.98;91.25
83697;BME280;73677;54.530;18.484;2023-10-31T06:17:48;98906.63;;;11.03;91.62
83697;BME280;73677;54.530;18.484;2023-10-31T06:20:17;98899.22;;;11.04;91.43
83697;BME280;73677;54.530;18.484;2023-10-31T06:22:47;98883.50;;;11.04;91.59
83697;BME280;73677;54.530;18.484;2023-10-31T06:25:18;98878.84;;;11.05;91.54
83697;BME280;73677;54.530;18.484;2023-10-31T06:27:47;98877.22;;;11.04;91.26
83697;BME280;73677;54.530;18.484;2023-10-31T06:30:16;98872.50;;;11.10;91.34
83697;BME280;73677;54.530;18.484;2023-10-31T06:32:55;98862.06;;;11.12;91.21
83697;BME280;73677;54.530;18.484;2023-10-31T06:35:24;98863.44;;;11.14;91.22
83697;BME280;73677;54.530;18.484;2023-10-31T06:37:54;98852.44;;;11.14;91.08
83697;BME280;73677;54.530;18.484;2023-10-31T06:40:26;98851.06;;;11.12;91.04
83697;BME280;73677;54.530;18.484;2023-10-31T06:42:55;98830.47;;;11.09;91.14
83697;BME280;73677;54.530;18.484;2023-10-31T06:45:26;98840.06;;;11.17;91.41
83697;BME280;73677;54.530;18.484;2023-10-31T06:47:59;98826.53;;;11.25;90.56
83697;BME280;73677;54.530;18.484;2023-10-31T06:50:28;98828.50;;;11.25;90.63
83697;BME280;73677;54.530;18.484;2023-10-31T06:52:57;98818.84;;;11.27;90.92
83697;BME280;73677;54.530;18.484;2023-10-31T06:55:30;98819.66;;;11.28;91.15
83697;BME280;73677;54.530;18.484;2023-10-31T06:57:59;98813.09;;;11.24;91.39
83697;BME280;73677;54.530;18.484;2023-10-31T07:00:31;98816.38;;;11.21;91.29
83697;BME280;73677;54.530;18.484;2023-10-31T07:03:00;98810.84;;;11.26;91.77
83697;BME280;73677;54.530;18.484;2023-10-31T07:05:32;98806.75;;;11.23;92.02
83697;BME280;73677;54.530;18.484;2023-10-31T07:08:02;98808.66;;;11.28;91.87
83697;BME280;73677;54.530;18.484;2023-10-31T07:10:37;98744.97;;;10.95;92.24
83697;BME280;73677;54.530;18.484;2023-10-31T07:13:07;98799.56;;;11.32;92.52
83697;BME280;73677;54.530;18.484;2023-10-31T07:15:38;98793.50;;;11.40;91.94
83697;BME280;73677;54.530;18.484;2023-10-31T07:18:07;98795.13;;;11.41;92.10
83697;BME280;73677;54.530;18.484;2023-10-31T07:20:37;98792.91;;;11.43;92.24
83697;BME280;73677;54.530;18.484;2023-10-31T07:23:06;98792.06;;;11.48;92.56
83697;BME280;73677;54.530;18.484;2023-10-31T07:25:36;98786.59;;;11.43;92.52
83697;BME280;73677;54.530;18.484;2023-10-31T07:28:06;98786.03;;;11.46;92.47
83697;BME280;73677;54.530;18.484;2023-10-31T07:30:35;98791.53;;;11.51;92.60
83697;BME280;73677;54.530;18.484;2023-10-31T07:33:04;98788.75;;;11.51;93.06
83697;BME280;73677;54.530;18.484;2023-10-31T07:35:33;98780.75;;;11.55;92.98
83697;BME280;73677;54.530;18.484;2023-10-31T07:38:03;98775.50;;;11.58;92.97
83697;BME280;73677;54.530;18.484;2023-10-31T07:40:32;98775.50;;;11.58;93.52
83697;BME280;73677;54.530;18.484;2023-10-31T07:43:02;98773.56;;;11.59;93.74
83697;BME280;73677;54.530;18.484;2023-10-31T07:45:31;98733.78;;;11.36;93.79
83697;BME280;73677;54.530;18.484;2023-10-31T07:48:01;98754.88;;;11.56;93.54
83697;BME280;73677;54.530;18.484;2023-10-31T07:50:31;98759.84;;;11.54;93.76
83697;BME280;73677;54.530;18.484;2023-10-31T07:53:00;98746.09;;;11.54;94.19
83697;BME280;73677;54.530;18.484;2023-10-31T07:55:29;98749.91;;;11.58;94.28
83697;BME280;73677;54.530;18.484;2023-10-31T07:57:57;98751.56;;;11.59;94.33
83697;BME280;73677;54.530;18.484;2023-10-31T08:00:28;98731.50;;;11.53;93.91
83697;BME280;73677;54.530;18.484;2023-10-31T08:02:58;98746.59;;;11.61;94.13
83697;BME280;73677;54.530;18.484;2023-10-31T08:05:27;98744.69;;;11.61;94.16
83697;BME280;73677;54.530;18.484;2023-10-31T08:07:56;98725.41;;;11.61;93.92
83697;BME280;73677;54.530;18.484;2023-10-31T08:10:26;98736.38;;;11.66;93.89
83697;BME280;73677;54.530;18.484;2023-10-31T08:12:55;98707.56;;;11.54;93.74
83697;BME280;73677;54.530;18.484;2023-10-31T08:15:24;98722.03;;;11.69;94.14
83697;BME280;73677;54.530;18.484;2023-10-31T08:17:54;98712.16;;;11.63;94.57
83697;BME280;73677;54.530;18.484;2023-10-31T08:20:24;98718.47;;;11.69;94.86
83697;BME280;73677;54.530;18.484;2023-10-31T08:22:53;98699.19;;;11.69;94.61
83697;BME280;73677;54.530;18.484;2023-10-31T08:25:22;98700.00;;;11.74;94.46
83697;BME280;73677;54.530;18.484;2023-10-31T08:27:51;98689.25;;;11.78;94.17
83697;BME280;73677;54.530;18.484;2023-10-31T08:30:20;98687.31;;;11.78;94.08
83697;BME280;73677;54.530;18.484;2023-10-31T08:32:49;98654.38;;;11.63;94.13
83697;BME280;73677;54.530;18.484;2023-10-31T08:35:19;98675.69;;;11.86;94.23
83697;BME280;73677;54.530;18.484;2023-10-31T08:37:48;98678.16;;;11.88;94.25
83697;BME280;73677;54.530;18.484;2023-10-31T08:40:19;98674.59;;;11.87;94.12
83697;BME280;73677;54.530;18.484;2023-10-31T08:42:48;98662.50;;;11.83;94.37
83697;BME280;73677;54.530;18.484;2023-10-31T08:45:20;98668.53;;;11.85;94.33
83697;BME280;73677;54.530;18.484;2023-10-31T08:47:50;98664.66;;;11.92;94.41
83697;BME280;73677;54.530;18.484;2023-10-31T08:50:21;98663.53;;;11.93;93.83
83697;BME280;73677;54.530;18.484;2023-10-31T08:52:50;98651.94;;;11.96;94.12
83697;BME280;73677;54.530;18.484;2023-10-31T08:55:19;98640.38;;;11.94;93.88
83697;BME280;73677;54.530;18.484;2023-10-31T08:57:48;98646.97;;;11.98;93.85
83697;BME280;73677;54.530;18.484;2023-10-31T09:00:22;98647.44;;;12.05;93.83
83697;BME280;73677;54.530;18.484;2023-10-31T09:02:51;98638.94;;;12.01;94.20
83697;BME280;73677;54.530;18.484;2023-10-31T09:05:21;98612.13;;;11.83;93.91
83697;BME280;73677;54.530;18.484;2023-10-31T09:07:50;98633.75;;;11.95;93.85
83697;BME280;73677;54.530;18.484;2023-10-31T09:10:21;98627.09;;;12.01;94.43
83697;BME280;73677;54.530;18.484;2023-10-31T09:12:50;98622.69;;;12.00;94.95
83697;BME280;73677;54.530;18.484;2023-10-31T09:15:19;98623.25;;;12.02;94.44
83697;BME280;73677;54.530;18.484;2023-10-31T09:17:49;98635.56;;;12.09;94.01
83697;BME280;73677;54.530;18.484;2023-10-31T09:20:22;98624.59;;;12.04;94.52
83697;BME280;73677;54.530;18.484;2023-10-31T09:22:51;98619.28;;;12.13;94.33
83697;BME280;73677;54.530;18.484;2023-10-31T09:25:21;98618.13;;;12.19;93.41
83697;BME280;73677;54.530;18.484;2023-10-31T09:27:49;98584.53;;;11.88;94.16
83697;BME280;73677;54.530;18.484;2023-10-31T09:30:18;98611.06;;;12.08;94.02
83697;BME280;73677;54.530;18.484;2023-10-31T09:32:47;98597.16;;;11.94;93.99
83697;BME280;73677;54.530;18.484;2023-10-31T09:35:18;98630.00;;;12.14;94.32
83697;BME280;73677;54.530;18.484;2023-10-31T09:37:48;98619.28;;;12.13;94.42
83697;BME280;73677;54.530;18.484;2023-10-31T09:40:17;98618.63;;;12.21;94.19
83697;BME280;73677;54.530;18.484;2023-10-31T09:42:47;98608.50;;;12.16;94.38
83697;BME280;73677;54.530;18.484;2023-10-31T09:45:17;98615.81;;;12.26;94.39
83697;BME280;73677;54.530;18.484;2023-10-31T09:47:47;98617.75;;;12.25;94.15
83697;BME280;73677;54.530;18.484;2023-10-31T09:50:17;98604.56;;;12.22;94.41
83697;BME280;73677;54.530;18.484;2023-10-31T09:52:48;98600.66;;;12.28;94.22
83697;BME280;73677;54.530;18.484;2023-10-31T09:55:17;98595.44;;;12.27;93.98
83697;BME280;73677;54.530;18.484;2023-10-31T09:57:47;98608.81;;;12.39;93.70
83697;BME280;73677;54.530;18.484;2023-10-31T10:00:17;98608.28;;;12.37;94.02
83697;BME280;73677;54.530;18.484;2023-10-31T10:02:46;98589.47;;;12.44;94.07
83697;BME280;73677;54.530;18.484;2023-10-31T10:05:16;98584.22;;;12.42;94.00
83697;BME280;73677;54.530;18.484;2023-10-31T10:07:45;98595.72;;;12.49;93.87
83697;BME280;73677;54.530;18.484;2023-10-31T10:10:16;98602.28;;;12.53;94.13
83697;BME280;73677;54.530;18.484;2023-10-31T10:12:45;98590.16;;;12.54;93.96
83697;BME280;73677;54.530;18.484;2023-10-31T10:15:14;98587.84;;;12.61;93.86
83697;BME280;73677;54.530;18.484;2023-10-31T10:17:49;98596.06;;;12.66;93.60
83697;BME280;73677;54.530;18.484;2023-10-31T10:20:19;98585.00;;;12.71;93.47
83697;BME280;73677;54.530;18.484;2023-10-31T10:22:48;98576.19;;;12.69;93.57
83697;BME280;73677;54.530;18.484;2023-10-31T10:25:21;98570.66;;;12.69;93.74
83697;BME280;73677;54.530;18.484;2023-10-31T10:27:53;98580.25;;;12.72;93.85
83697;BME280;73677;54.530;18.484;2023-10-31T10:30:22;98559.50;;;12.61;94.03
83697;BME280;73677;54.530;18.484;2023-10-31T10:32:50;98573.06;;;12.76;93.44
83697;BME280;73677;54.530;18.484;2023-10-31T10:35:19;98576.50;;;12.87;93.19
83697;BME280;73677;54.530;18.484;2023-10-31T10:37:49;98565.53;;;12.82;93.33
83697;BME280;73677;54.530;18.484;2023-10-31T10:40:20;98566.31;;;12.87;93.30
83697;BME280;73677;54.530;18.484;2023-10-31T10:42:50;98571.97;;;12.96;92.96
83697;BME280;73677;54.530;18.484;2023-10-31T10:45:24;98575.25;;;12.98;92.90
83697;BME280;73677;54.530;18.484;2023-10-31T10:47:56;98576.78;;;13.04;93.21
83697;BME280;73677;54.530;18.484;2023-10-31T10:50:30;98570.28;;;13.19;92.39
83697;BME280;73677;54.530;18.484;2023-10-31T10:53:14;98579.66;;;13.36;92.52
83697;BME280;73677;54.530;18.484;2023-10-31T10:55:51;98570.72;;;13.44;91.50
83697;BME280;73677;54.530;18.484;2023-10-31T10:58:26;98585.16;;;13.55;91.36
83697;BME280;73677;54.530;18.484;2023-10-31T11:00:57;98588.50;;;13.52;91.46
83697;BME280;73677;54.530;18.484;2023-10-31T11:03:27;98594.19;;;13.61;91.52
83697;BME280;73677;54.530;18.484;2023-10-31T11:06:02;98578.19;;;13.57;91.09
83697;BME280;73677;54.530;18.484;2023-10-31T11:08:32;98589.69;;;13.65;91.45
83697;BME280;73677;54.530;18.484;2023-10-31T11:11:04;98557.41;;;13.46;90.97
83697;BME280;73677;54.530;18.484;2023-10-31T11:13:34;98581.63;;;13.68;91.13
83697;BME280;73677;54.530;18.484;2023-10-31T11:16:09;98577.44;;;13.71;90.90
83697;BME280;73677;54.530;18.484;2023-10-31T11:18:40;98577.47;;;13.84;90.41
83697;BME280;73677;54.530;18.484;2023-10-31T11:21:10;98580.66;;;13.91;90.04
83697;BME280;73677;54.530;18.484;2023-10-31T11:23:40;98582.34;;;14.20;89.64
83697;BME280;73677;54.530;18.484;2023-10-31T11:26:11;98557.78;;;14.32;88.39
83697;BME280;73677;54.530;18.484;2023-10-31T11:28:40;98559.84;;;14.26;88.15
83697;BME280;73677;54.530;18.484;2023-10-31T11:31:12;98567.75;;;14.47;88.41
83697;BME280;73677;54.530;18.484;2023-10-31T11:33:43;98564.88;;;14.38;88.96
83697;BME280;73677;54.530;18.484;2023-10-31T11:36:13;98570.34;;;14.24;88.88
83697;BME280;73677;54.530;18.484;2023-10-31T11:38:44;98574.88;;;14.20;88.56
83697;BME280;73677;54.530;18.484;2023-10-31T11:41:15;98579.13;;;13.99;89.35
83697;BME280;73677;54.530;18.484;2023-10-31T11:43:53;98586.19;;;13.91;89.17
83697;BME280;73677;54.530;18.484;2023-10-31T11:46:25;98588.53;;;13.84;90.03
83697;BME280;73677;54.530;18.484;2023-10-31T11:48:55;98597.50;;;13.76;90.54
83697;BME280;73677;54.530;18.484;2023-10-31T11:51:25;98591.34;;;13.66;90.73
83697;BME280;73677;54.530;18.484;2023-10-31T11:53:56;98612.19;;;13.72;90.55
83697;BME280;73677;54.530;18.484;2023-10-31T11:56:27;98602.38;;;13.66;90.58
83697;BME280;73677;54.530;18.484;2023-10-31T11:59:00;98594.50;;;13.73;90.86
83697;BME280;73677;54.530;18.484;2023-10-31T12:01:30;98597.44;;;13.63;90.10
83697;BME280;73677;54.530;18.484;2023-10-31T12:03:59;98603.97;;;13.53;90.84
83697;BME280;73677;54.530;18.484;2023-10-31T12:06:31;98605.81;;;13.57;90.59
83697;BME280;73677;54.530;18.484;2023-10-31T12:09:00;98600.00;;;13.59;90.13
83697;BME280;73677;54.530;18.484;2023-10-31T12:11:44;98615.03;;;13.67;89.91
83697;BME280;73677;54.530;18.484;2023-10-31T12:14:40;98608.56;;;13.57;89.72
83697;BME280;73677;54.530;18.484;2023-10-31T12:17:09;98602.16;;;13.62;89.13
83697;BME280;73677;54.530;18.484;2023-10-31T12:19:38;98605.59;;;13.54;89.27
83697;BME280;73677;54.530;18.484;2023-10-31T12:22:13;98622.47;;;13.52;89.77
83697;BME280;73677;54.530;18.484;2023-10-31T12:24:42;98628.28;;;13.51;89.74
83697;BME280;73677;54.530;18.484;2023-10-31T12:27:13;98626.34;;;13.51;89.22
83697;BME280;73677;54.530;18.484;2023-10-31T12:29:42;98613.88;;;13.35;90.51
83697;BME280;73677;54.530;18.484;2023-10-31T12:32:12;98637.38;;;13.51;90.43
83697;BME280;73677;54.530;18.484;2023-10-31T12:34:43;98641.25;;;13.50;89.75
83697;BME280;73677;54.530;18.484;2023-10-31T12:37:13;98648.56;;;13.41;90.18
83697;BME280;73677;54.530;18.484;2023-10-31T12:39:41;98649.41;;;13.42;89.89
83697;BME280;73677;54.530;18.484;2023-10-31T12:42:18;98648.28;;;13.43;89.97
83697;BME280;73677;54.530;18.484;2023-10-31T12:44:54;98651.56;;;13.45;89.49
83697;BME280;73677;54.530;18.484;2023-10-31T12:47:26;98649.47;;;13.37;89.61
83697;BME280;73677;54.530;18.484;2023-10-31T12:50:06;98663.06;;;13.33;89.00
83697;BME280;73677;54.530;18.484;2023-10-31T12:52:48;98690.72;;;13.47;89.22
83697;BME280;73677;54.530;18.484;2023-10-31T12:55:20;98653.63;;;13.15;89.56
83697;BME280;73677;54.530;18.484;2023-10-31T12:57:52;98683.28;;;13.29;89.89
83697;BME280;73677;54.530;18.484;2023-10-31T13:00:22;98688.47;;;13.30;90.42
83697;BME280;73677;54.530;18.484;2023-10-31T13:03:00;98702.34;;;13.25;89.91
83697;BME280;73677;54.530;18.484;2023-10-31T13:05:30;98711.16;;;13.27;88.89
83697;BME280;73677;54.530;18.484;2023-10-31T13:08:04;98709.22;;;13.28;88.48
83697;BME280;73677;54.530;18.484;2023-10-31T13:10:39;98698.41;;;13.31;88.75